createdAt,value
2023-05-21T00:01:08.593Z,1.20
2023-05-21T00:03:36.261Z,1.75
2023-05-21T00:06:03.896Z,0.88
2023-05-21T00:08:31.221Z,1.10
2023-05-21T00:10:58.053Z,1.17
2023-05-21T00:13:24.798Z,1.10
2023-05-21T00:15:51.663Z,1.30
2023-05-21T00:18:18.363Z,0.93
2023-05-21T00:20:45.684Z,0.90
2023-05-21T00:23:12.568Z,0.82
2023-05-21T00:25:39.331Z,0.90
2023-05-21T00:28:05.947Z,1.10
2023-05-21T00:30:32.756Z,0.77
2023-05-21T00:33:02.456Z,1.50
2023-05-21T00:35:29.636Z,0.95
2023-05-21T00:37:56.510Z,2.63
2023-05-21T00:40:23.265Z,2.70
2023-05-21T00:42:49.967Z,2.00
2023-05-21T00:45:16.840Z,1.50
2023-05-21T00:47:44.691Z,1.38
2023-05-21T00:50:12.008Z,1.20
2023-05-21T00:52:42.224Z,1.45
2023-05-21T00:55:10.648Z,1.23
2023-05-21T00:57:37.537Z,1.25
2023-05-21T01:00:08.788Z,1.33
2023-05-21T01:02:37.229Z,0.95
2023-05-21T01:05:08.449Z,0.98
2023-05-21T01:07:39.072Z,1.08
2023-05-21T01:10:08.233Z,1.73
2023-05-21T01:12:35.979Z,1.40
2023-05-21T01:15:04.173Z,0.82
2023-05-21T01:17:31.896Z,0.85
2023-05-21T01:19:59.422Z,1.40
2023-05-21T01:22:28.533Z,0.90
2023-05-21T01:24:55.649Z,1.20
2023-05-21T01:27:22.906Z,1.10
2023-05-21T01:29:50.388Z,1.15
2023-05-21T01:32:29.864Z,0.77
2023-05-21T01:35:04.507Z,1.02
2023-05-21T01:37:57.495Z,1.20
2023-05-21T01:40:38.415Z,1.38
2023-05-21T01:43:07.189Z,1.00
2023-05-21T01:45:36.657Z,0.98
2023-05-21T01:48:05.996Z,0.73
2023-05-21T01:50:34.421Z,0.90
2023-05-21T01:53:01.296Z,0.88
2023-05-21T01:55:30.775Z,1.30
2023-05-21T01:58:01.365Z,1.23
2023-05-21T02:00:29.623Z,1.08
2023-05-21T02:02:56.924Z,1.20
2023-05-21T02:05:23.861Z,1.50
2023-05-21T02:07:52.104Z,1.05
2023-05-21T02:10:19.355Z,1.10
2023-05-21T02:12:46.489Z,1.05
2023-05-21T02:15:14.447Z,0.60
2023-05-21T02:17:42.465Z,1.23
2023-05-21T02:20:12.254Z,0.93
2023-05-21T02:22:41.437Z,0.95
2023-05-21T02:25:09.502Z,1.08
2023-05-21T02:27:37.602Z,0.88
2023-05-21T02:30:06.885Z,0.90
2023-05-21T02:32:34.864Z,0.95
2023-05-21T02:35:03.804Z,2.10
2023-05-21T02:37:33.949Z,1.40
2023-05-21T02:40:02.159Z,1.10
2023-05-21T02:42:29.928Z,0.90
2023-05-21T02:44:56.761Z,1.05
2023-05-21T02:47:24.292Z,0.95
2023-05-21T02:49:53.056Z,0.80
2023-05-21T02:52:22.584Z,1.00
2023-05-21T02:54:49.432Z,1.10
2023-05-21T02:57:18.268Z,0.85
2023-05-21T02:59:45.959Z,1.00
2023-05-21T03:02:12.944Z,0.95
2023-05-21T03:04:46.348Z,0.80
2023-05-21T03:07:14.669Z,1.05
2023-05-21T03:09:42.342Z,1.20
2023-05-21T03:12:09.763Z,1.20
2023-05-21T03:14:36.606Z,0.90
2023-05-21T03:17:05.969Z,0.75
2023-05-21T03:19:35.863Z,1.05
2023-05-21T03:22:04.579Z,0.80
2023-05-21T03:24:35.259Z,1.10
2023-05-21T03:27:02.387Z,1.20
2023-05-21T03:29:29.221Z,0.85
2023-05-21T03:31:57.643Z,1.00
2023-05-21T03:34:24.567Z,1.42
2023-05-21T03:36:52.252Z,0.88
2023-05-21T03:39:20.323Z,0.90
2023-05-21T03:41:47.118Z,0.82
2023-05-21T03:44:22.112Z,1.35
2023-05-21T03:46:56.315Z,1.83
2023-05-21T03:49:28.779Z,0.85
2023-05-21T03:51:56.827Z,1.42
2023-05-21T03:54:24.377Z,0.75
2023-05-21T03:56:54.171Z,1.10
2023-05-21T03:59:22.642Z,1.00
2023-05-21T04:01:49.421Z,1.00
2023-05-21T04:04:17.675Z,0.90
2023-05-21T04:06:44.541Z,1.00
2023-05-21T04:09:12.980Z,1.25
2023-05-21T04:11:39.734Z,1.40
2023-05-21T04:14:06.550Z,0.90
2023-05-21T04:16:34.805Z,0.93
2023-05-21T04:19:01.907Z,1.60
2023-05-21T04:21:30.094Z,1.30
2023-05-21T04:23:57.588Z,1.23
2023-05-21T04:26:44.705Z,0.93
2023-05-21T04:29:11.677Z,1.67
2023-05-21T04:31:38.467Z,0.93
2023-05-21T04:34:05.452Z,1.10
2023-05-21T04:36:33.773Z,1.00
2023-05-21T04:39:01.190Z,1.00
2023-05-21T04:41:28.621Z,1.05
2023-05-21T04:43:55.539Z,1.20
2023-05-21T04:46:26.866Z,1.20
2023-05-21T04:48:55.386Z,1.17
2023-05-21T04:51:24.726Z,1.02
2023-05-21T04:53:52.073Z,1.20
2023-05-21T04:56:19.006Z,1.30
2023-05-21T04:58:47.975Z,1.48
2023-05-21T05:01:15.929Z,1.50
2023-05-21T05:03:42.902Z,1.80
2023-05-21T05:06:09.599Z,1.25
2023-05-21T05:08:36.410Z,1.30
2023-05-21T05:11:04.207Z,1.10
2023-05-21T05:13:31.393Z,1.20
2023-05-21T05:15:58.038Z,1.38
2023-05-21T05:18:26.489Z,1.52
2023-05-21T05:20:53.214Z,1.58
2023-05-21T05:23:20.000Z,1.30
2023-05-21T05:25:46.929Z,1.20
2023-05-21T05:28:13.795Z,1.40
2023-05-21T05:30:40.736Z,0.95
2023-05-21T05:33:26.476Z,1.00
2023-05-21T05:35:53.627Z,1.30
2023-05-21T05:38:21.079Z,1.15
2023-05-21T05:40:47.813Z,1.20
2023-05-21T05:43:14.571Z,1.17
2023-05-21T05:45:41.277Z,1.40
2023-05-21T05:48:13.028Z,1.50
2023-05-21T05:50:39.666Z,1.20
2023-05-21T05:53:07.405Z,1.20
2023-05-21T05:55:34.745Z,1.13
2023-05-21T05:58:01.614Z,1.20
2023-05-21T06:00:28.339Z,1.40
2023-05-21T06:02:55.841Z,1.55
2023-05-21T06:05:22.833Z,1.30
2023-05-21T06:07:50.706Z,1.50
2023-05-21T06:10:20.817Z,1.50
2023-05-21T06:12:47.696Z,1.42
2023-05-21T06:15:19.396Z,1.40
2023-05-21T06:17:46.329Z,1.60
2023-05-21T06:20:13.754Z,2.42
2023-05-21T06:22:40.742Z,2.45
2023-05-21T06:25:11.100Z,1.75
2023-05-21T06:27:38.765Z,1.45
2023-05-21T06:30:10.567Z,1.25
2023-05-21T06:32:37.499Z,1.27
2023-05-21T06:35:04.744Z,1.70
2023-05-21T06:37:31.522Z,1.30
2023-05-21T06:39:58.222Z,1.30
2023-05-21T06:42:24.922Z,1.40
2023-05-21T06:45:24.010Z,1.42
2023-05-21T06:47:54.965Z,1.50
2023-05-21T06:50:21.706Z,1.50
2023-05-21T06:52:48.532Z,1.42
2023-05-21T06:55:15.350Z,1.75
2023-05-21T06:58:14.314Z,1.65
2023-05-21T07:00:41.205Z,1.40
2023-05-21T07:03:08.254Z,1.50
2023-05-21T07:05:36.543Z,1.40
2023-05-21T07:08:04.673Z,2.15
2023-05-21T07:10:31.338Z,1.38
2023-05-21T07:12:59.826Z,1.45
2023-05-21T07:15:27.065Z,1.50
2023-05-21T07:17:58.323Z,1.40
2023-05-21T07:20:25.326Z,1.60
2023-05-21T07:22:55.547Z,1.80
2023-05-21T07:25:22.692Z,1.77
2023-05-21T07:27:49.492Z,2.17
2023-05-21T07:30:16.446Z,1.70
2023-05-21T07:32:43.164Z,1.67
2023-05-21T07:35:10.151Z,1.50
2023-05-21T07:37:36.821Z,1.45
2023-05-21T07:40:04.744Z,1.77
2023-05-21T07:42:31.538Z,2.00
2023-05-21T07:44:58.870Z,1.98
2023-05-21T07:47:27.078Z,1.55
2023-05-21T07:49:54.200Z,2.17
2023-05-21T07:52:21.142Z,1.98
2023-05-21T07:54:47.913Z,1.80
2023-05-21T07:57:15.074Z,2.00
2023-05-21T07:59:56.841Z,2.10
2023-05-21T08:02:24.312Z,2.05
2023-05-21T08:04:55.200Z,2.05
2023-05-21T08:07:22.070Z,2.03
2023-05-21T08:09:49.041Z,2.47
2023-05-21T08:12:16.202Z,2.05
2023-05-21T08:14:43.821Z,2.15
2023-05-21T08:17:12.682Z,1.80
2023-05-21T08:19:39.749Z,1.80
2023-05-21T08:22:07.590Z,2.00
2023-05-21T08:24:36.865Z,2.15
2023-05-21T08:27:03.890Z,2.17
2023-05-21T08:29:33.094Z,2.33
2023-05-21T08:31:59.928Z,1.48
2023-05-21T08:34:26.757Z,2.03
2023-05-21T08:37:06.998Z,2.10
2023-05-21T08:40:09.851Z,1.92
2023-05-21T08:42:47.512Z,2.05
2023-05-21T08:45:23.722Z,2.42
2023-05-21T08:48:00.069Z,2.97
2023-05-21T08:50:31.945Z,2.35
2023-05-21T08:53:07.523Z,2.35
2023-05-21T08:55:43.855Z,2.47
2023-05-21T08:58:11.201Z,2.55
2023-05-21T09:00:38.160Z,2.35
2023-05-21T09:03:11.291Z,2.45
2023-05-21T09:05:41.475Z,2.50
2023-05-21T09:08:18.068Z,2.85
2023-05-21T09:11:14.546Z,2.35
2023-05-21T09:13:49.179Z,2.55
2023-05-21T09:16:23.101Z,3.05
2023-05-21T09:18:50.298Z,3.13
2023-05-21T09:21:28.375Z,2.70
2023-05-21T09:24:14.432Z,2.67
2023-05-21T09:26:45.711Z,2.78
2023-05-21T09:29:13.342Z,3.08
2023-05-21T09:31:44.918Z,2.60
2023-05-21T09:34:14.156Z,2.28
2023-05-21T09:36:44.006Z,2.47
2023-05-21T09:39:16.321Z,2.53
2023-05-21T09:41:43.880Z,3.10
2023-05-21T09:44:10.733Z,2.85
2023-05-21T09:46:40.429Z,3.20
2023-05-21T09:49:21.931Z,3.42
2023-05-21T09:51:48.699Z,2.80
2023-05-21T09:54:15.346Z,3.20
2023-05-21T09:56:42.453Z,3.17
2023-05-21T09:59:09.293Z,4.32
2023-05-21T10:01:37.393Z,5.22
2023-05-21T10:04:08.345Z,4.65
2023-05-21T10:06:43.557Z,2.80
2023-05-21T10:09:11.539Z,4.70
2023-05-21T10:11:40.979Z,6.20
2023-05-21T10:14:13.545Z,10.98
2023-05-21T10:16:40.859Z,5.72
2023-05-21T10:19:11.147Z,5.57
2023-05-21T10:21:39.961Z,11.68
2023-05-21T10:24:10.797Z,12.60
2023-05-21T10:26:38.627Z,6.72
2023-05-21T10:29:05.523Z,3.78
2023-05-21T10:31:33.277Z,3.13
2023-05-21T10:34:00.847Z,4.22
2023-05-21T10:36:31.830Z,5.63
2023-05-21T10:39:00.699Z,5.22
2023-05-21T10:41:32.499Z,3.85
2023-05-21T10:44:05.317Z,6.65
2023-05-21T10:47:10.782Z,4.28
2023-05-21T10:49:59.309Z,3.50
2023-05-21T10:53:03.257Z,3.70
2023-05-21T10:55:29.987Z,5.38
2023-05-21T10:58:26.919Z,5.15
2023-05-21T11:00:56.130Z,3.85
2023-05-21T11:03:23.246Z,3.50
2023-05-21T11:05:55.471Z,3.45
2023-05-21T11:08:35.671Z,3.55
2023-05-21T11:11:03.627Z,3.35
2023-05-21T11:13:49.237Z,3.78
2023-05-21T11:16:17.155Z,3.95
2023-05-21T11:18:46.669Z,3.50
2023-05-21T11:21:17.830Z,3.50
2023-05-21T11:24:05.002Z,3.95
2023-05-21T11:26:50.274Z,3.40
2023-05-21T11:29:17.650Z,3.10
2023-05-21T11:31:49.320Z,3.67
2023-05-21T11:34:28.625Z,3.47
2023-05-21T11:37:17.502Z,3.17
2023-05-21T11:39:45.357Z,3.38
2023-05-21T11:42:12.753Z,2.67
2023-05-21T11:44:43.355Z,3.00
2023-05-21T11:47:12.598Z,2.65
2023-05-21T11:49:39.512Z,2.80
2023-05-21T11:52:07.925Z,3.10
2023-05-21T11:54:40.978Z,3.30
2023-05-21T11:57:08.202Z,3.03
2023-05-21T11:59:35.555Z,3.33
2023-05-21T12:02:03.551Z,3.10
2023-05-21T12:04:37.877Z,3.88
2023-05-21T12:07:08.369Z,3.78
2023-05-21T12:09:43.037Z,3.45
2023-05-21T12:12:11.583Z,3.50
2023-05-21T12:14:38.286Z,3.38
2023-05-21T12:17:06.956Z,3.10
2023-05-21T12:19:35.081Z,2.30
2023-05-21T12:22:06.189Z,2.95
2023-05-21T12:24:34.437Z,2.70
2023-05-21T12:27:02.855Z,2.80
2023-05-21T12:29:33.556Z,2.70
2023-05-21T12:32:01.914Z,2.75
2023-05-21T12:34:48.747Z,2.53
2023-05-21T12:37:25.870Z,2.78
2023-05-21T12:39:54.550Z,2.75
2023-05-21T12:42:35.388Z,3.03
2023-05-21T12:45:08.033Z,3.40
2023-05-21T12:47:35.234Z,2.42
2023-05-21T12:50:09.355Z,2.70
2023-05-21T12:52:36.110Z,3.13
2023-05-21T12:55:02.841Z,3.13
2023-05-21T12:57:38.805Z,3.10
2023-05-21T13:00:07.349Z,2.90
2023-05-21T13:02:42.863Z,3.10
2023-05-21T13:05:17.444Z,2.70
2023-05-21T13:07:46.930Z,3.17
2023-05-21T13:10:16.272Z,3.22
2023-05-21T13:12:44.702Z,3.53
2023-05-21T13:15:12.271Z,3.03
2023-05-21T13:17:39.194Z,3.35
2023-05-21T13:20:16.721Z,3.63
2023-05-21T13:22:46.716Z,3.33
2023-05-21T13:25:21.547Z,3.53
2023-05-21T13:27:49.538Z,3.08
2023-05-21T13:30:16.433Z,3.38
2023-05-21T13:32:43.738Z,4.00
2023-05-21T13:35:11.926Z,3.78
2023-05-21T13:37:42.160Z,4.70
2023-05-21T13:40:16.979Z,3.88
2023-05-21T13:42:45.548Z,3.50
2023-05-21T13:45:14.657Z,3.72
2023-05-21T13:47:42.138Z,3.67
2023-05-21T13:50:09.518Z,3.22
2023-05-21T13:52:37.371Z,3.83
2023-05-21T13:55:04.493Z,4.20
2023-05-21T13:57:31.326Z,3.67
2023-05-21T13:59:59.015Z,3.97
2023-05-21T14:02:26.294Z,3.45
2023-05-21T14:04:53.892Z,3.55
2023-05-21T14:07:21.594Z,3.50
2023-05-21T14:09:48.567Z,3.28
2023-05-21T14:12:15.766Z,3.42
2023-05-21T14:14:42.517Z,3.55
2023-05-21T14:17:09.304Z,3.65
2023-05-21T14:19:36.103Z,3.22
2023-05-21T14:22:02.854Z,3.47
2023-05-21T14:24:29.698Z,3.67
2023-05-21T14:26:56.497Z,3.30
2023-05-21T14:29:23.346Z,4.05
2023-05-21T14:31:50.466Z,4.38
2023-05-21T14:34:17.749Z,3.90
2023-05-21T14:36:44.670Z,4.43
2023-05-21T14:39:11.591Z,4.47
2023-05-21T14:41:39.585Z,4.63
2023-05-21T14:44:06.267Z,4.40
2023-05-21T14:46:33.188Z,3.95
2023-05-21T14:49:00.637Z,4.85
2023-05-21T14:51:27.619Z,4.53
2023-05-21T14:53:54.389Z,4.88
2023-05-21T14:56:21.866Z,4.13
2023-05-21T14:58:48.608Z,4.75
2023-05-21T15:01:15.640Z,4.25
2023-05-21T15:03:42.443Z,4.70
2023-05-21T15:06:09.327Z,4.75
2023-05-21T15:08:36.125Z,4.57
2023-05-21T15:11:02.837Z,4.93
2023-05-21T15:13:29.601Z,4.82
2023-05-21T15:15:56.659Z,4.57
2023-05-21T15:18:24.789Z,4.35
2023-05-21T15:20:51.663Z,4.65
2023-05-21T15:23:18.755Z,4.47
2023-05-21T15:25:45.988Z,5.25
2023-05-21T15:28:13.127Z,6.20
2023-05-21T15:30:40.459Z,5.05
2023-05-21T15:33:07.214Z,4.90
2023-05-21T15:35:35.451Z,5.63
2023-05-21T15:38:02.865Z,5.53
2023-05-21T15:40:29.785Z,5.93
2023-05-21T15:42:56.545Z,5.25
2023-05-21T15:45:25.294Z,5.72
2023-05-21T15:47:52.095Z,4.93
2023-05-21T15:50:18.928Z,5.40
2023-05-21T15:52:45.678Z,4.45
2023-05-21T15:55:13.871Z,5.63
2023-05-21T15:57:40.799Z,4.90
2023-05-21T16:00:09.032Z,4.75
2023-05-21T16:02:35.984Z,5.38
2023-05-21T16:05:02.986Z,5.07
2023-05-21T16:07:29.739Z,5.05
2023-05-21T16:09:56.552Z,5.10
2023-05-21T16:12:23.237Z,5.10
2023-05-21T16:14:53.140Z,5.43
2023-05-21T16:17:20.130Z,5.18
2023-05-21T16:19:47.596Z,4.95
2023-05-21T16:22:14.832Z,4.97
2023-05-21T16:24:41.558Z,5.65
2023-05-21T16:27:08.369Z,5.10
2023-05-21T16:29:35.333Z,5.40
2023-05-21T16:32:02.379Z,4.88
2023-05-21T16:34:29.284Z,5.20
2023-05-21T16:36:56.642Z,4.82
2023-05-21T16:39:23.256Z,5.35
2023-05-21T16:41:50.147Z,5.32
2023-05-21T16:44:17.011Z,5.47
2023-05-21T16:46:43.799Z,5.53
2023-05-21T16:49:10.833Z,5.55
2023-05-21T16:51:37.636Z,5.93
2023-05-21T16:54:05.313Z,5.68
2023-05-21T16:56:32.140Z,6.03
2023-05-21T16:58:58.887Z,6.38
2023-05-21T17:01:26.140Z,6.22
2023-05-21T17:03:53.403Z,5.90
2023-05-21T17:06:20.468Z,5.43
2023-05-21T17:08:47.290Z,6.38
2023-05-21T17:11:14.156Z,6.22
2023-05-21T17:13:41.127Z,6.20
2023-05-21T17:16:08.058Z,6.18
2023-05-21T17:18:35.142Z,6.50
2023-05-21T17:21:01.930Z,6.28
2023-05-21T17:23:28.650Z,6.60
2023-05-21T17:25:55.557Z,7.43
2023-05-21T17:28:22.270Z,6.43
2023-05-21T17:30:49.753Z,8.02
2023-05-21T17:33:16.926Z,6.65
2023-05-21T17:35:44.227Z,6.05
2023-05-21T17:38:11.004Z,6.78
2023-05-21T17:40:37.774Z,7.22
2023-05-21T17:43:05.241Z,6.50
2023-05-21T17:45:32.186Z,6.00
2023-05-21T17:48:00.458Z,6.65
2023-05-21T17:50:28.173Z,6.85
2023-05-21T17:52:55.040Z,7.20
2023-05-21T17:55:21.769Z,7.25
2023-05-21T17:57:48.557Z,7.20
2023-05-21T18:00:15.485Z,7.55
2023-05-21T18:02:42.232Z,8.18
2023-05-21T18:05:09.303Z,7.28
2023-05-21T18:07:37.310Z,6.78
2023-05-21T18:10:04.399Z,6.75
2023-05-21T18:12:31.075Z,6.88
2023-05-21T18:14:58.033Z,6.47
2023-05-21T18:17:24.966Z,6.70
2023-05-21T18:19:51.745Z,6.47
2023-05-21T18:22:18.372Z,6.65
2023-05-21T18:24:46.200Z,6.35
2023-05-21T18:27:13.609Z,6.68
2023-05-21T18:29:40.490Z,7.07
2023-05-21T18:32:07.723Z,6.90
2023-05-21T18:34:34.646Z,7.03
2023-05-21T18:37:01.380Z,6.95
2023-05-21T18:39:28.222Z,7.18
2023-05-21T18:42:08.859Z,6.25
2023-05-21T18:44:39.477Z,7.07
2023-05-21T18:47:07.818Z,6.95
2023-05-21T18:49:36.060Z,7.18
2023-05-21T18:52:03.906Z,6.57
2023-05-21T18:54:30.815Z,6.78
2023-05-21T18:57:00.213Z,7.65
2023-05-21T18:59:28.393Z,6.68
2023-05-21T19:01:55.291Z,6.72
2023-05-21T19:04:22.333Z,6.75
2023-05-21T19:06:48.989Z,6.72
2023-05-21T19:09:15.912Z,6.78
2023-05-21T19:11:42.538Z,6.72
2023-05-21T19:14:09.368Z,7.22
2023-05-21T19:16:36.151Z,7.07
2023-05-21T19:19:04.177Z,7.63
2023-05-21T19:21:31.418Z,7.78
2023-05-21T19:23:58.492Z,7.70
2023-05-21T19:26:25.443Z,7.82
2023-05-21T19:28:53.274Z,7.80
2023-05-21T19:31:21.872Z,7.70
2023-05-21T19:33:49.117Z,7.68
2023-05-21T19:36:16.158Z,8.20
2023-05-21T19:38:48.198Z,7.22
2023-05-21T19:41:19.589Z,6.90
2023-05-21T19:43:46.395Z,6.80
2023-05-21T19:46:15.993Z,7.65
2023-05-21T19:48:45.121Z,7.22
2023-05-21T19:51:11.857Z,8.05
2023-05-21T19:53:38.781Z,7.13
2023-05-21T19:56:05.875Z,7.80
2023-05-21T19:58:33.153Z,7.75
2023-05-21T20:01:01.073Z,7.57
2023-05-21T20:03:28.753Z,7.05
2023-05-21T20:05:55.505Z,8.02
2023-05-21T20:08:22.775Z,7.68
2023-05-21T20:10:51.664Z,7.70
2023-05-21T20:13:19.576Z,7.07
2023-05-21T20:15:48.009Z,6.80
2023-05-21T20:18:15.646Z,6.93
2023-05-21T20:20:43.428Z,7.32
2023-05-21T20:23:10.488Z,7.30
2023-05-21T20:25:37.213Z,6.57
2023-05-21T20:28:05.327Z,7.28
2023-05-21T20:30:34.000Z,6.38
2023-05-21T20:33:04.215Z,6.28
2023-05-21T20:35:31.101Z,7.88
2023-05-21T20:37:59.542Z,7.93
2023-05-21T20:40:26.358Z,8.95
2023-05-21T20:42:54.074Z,8.70
2023-05-21T20:45:22.029Z,7.20
2023-05-21T20:47:49.931Z,7.57
2023-05-21T20:50:25.926Z,7.32
2023-05-21T20:52:52.669Z,7.50
2023-05-21T20:55:20.722Z,7.20
2023-05-21T20:57:47.640Z,7.63
2023-05-21T21:00:15.993Z,6.85
2023-05-21T21:02:42.876Z,7.15
2023-05-21T21:05:10.696Z,7.10
2023-05-21T21:07:37.769Z,7.85
2023-05-21T21:10:05.473Z,7.00
2023-05-21T21:12:32.224Z,6.25
2023-05-21T21:14:58.830Z,6.95
2023-05-21T21:17:25.608Z,6.53
2023-05-21T21:19:52.334Z,7.38
2023-05-21T21:22:19.516Z,6.43
2023-05-21T21:24:46.870Z,6.55
2023-05-21T21:27:13.761Z,6.75
2023-05-21T21:29:40.392Z,6.00
2023-05-21T21:32:07.631Z,7.00
2023-05-21T21:34:34.357Z,7.18
2023-05-21T21:37:01.178Z,6.45
2023-05-21T21:39:27.856Z,7.32
2023-05-21T21:41:54.698Z,6.63
2023-05-21T21:44:21.301Z,6.65
2023-05-21T21:46:48.104Z,7.28
2023-05-21T21:49:17.260Z,7.30
2023-05-21T21:51:48.430Z,6.22
2023-05-21T21:54:15.572Z,7.25
2023-05-21T21:56:42.476Z,7.25
2023-05-21T21:59:09.280Z,7.80
2023-05-21T22:01:36.271Z,7.65
2023-05-21T22:04:03.329Z,6.47
2023-05-21T22:06:30.064Z,7.95
2023-05-21T22:08:56.818Z,8.10
2023-05-21T22:11:23.679Z,6.70
2023-05-21T22:13:50.388Z,6.82
2023-05-21T22:16:17.051Z,7.55
2023-05-21T22:18:44.024Z,6.85
2023-05-21T22:21:14.179Z,6.97
2023-05-21T22:23:41.329Z,6.63
2023-05-21T22:26:09.040Z,6.18
2023-05-21T22:28:36.148Z,6.97
2023-05-21T22:31:03.395Z,7.05
2023-05-21T22:33:30.528Z,6.15
2023-05-21T22:35:57.296Z,6.95
2023-05-21T22:38:24.924Z,7.50
2023-05-21T22:40:51.619Z,6.75
2023-05-21T22:43:18.479Z,7.10
2023-05-21T22:45:45.196Z,7.53
2023-05-21T22:48:11.916Z,6.72
2023-05-21T22:50:39.142Z,6.97
2023-05-21T22:53:06.981Z,7.47
2023-05-21T22:55:33.801Z,7.03
2023-05-21T22:58:00.546Z,6.72
2023-05-21T23:00:28.052Z,7.10
2023-05-21T23:02:55.116Z,6.93
2023-05-21T23:05:22.503Z,6.95
2023-05-21T23:07:49.604Z,7.40
2023-05-21T23:10:16.637Z,6.82
2023-05-21T23:12:43.575Z,6.95
2023-05-21T23:15:10.809Z,7.32
2023-05-21T23:17:38.400Z,7.38
2023-05-21T23:20:07.018Z,7.07
2023-05-21T23:22:34.409Z,6.55
2023-05-21T23:25:01.522Z,5.93
2023-05-21T23:27:28.601Z,6.28
2023-05-21T23:29:55.698Z,6.55
2023-05-21T23:32:23.661Z,6.30
2023-05-21T23:34:50.808Z,6.50
2023-05-21T23:37:17.646Z,6.15
2023-05-21T23:39:48.137Z,6.40
2023-05-21T23:42:16.291Z,6.85
2023-05-21T23:44:43.021Z,7.55
2023-05-21T23:47:09.972Z,8.05
2023-05-21T23:49:36.733Z,8.25
2023-05-21T23:52:03.904Z,8.05
2023-05-21T23:54:30.946Z,8.45
2023-05-21T23:56:57.586Z,7.65
2023-05-21T23:59:24.239Z,7.47
